createdAt,value
2018-10-09T00:01:51.107Z,7.57
2018-10-09T00:04:19.261Z,8.00
2018-10-09T00:06:47.435Z,8.23
2018-10-09T00:09:15.569Z,9.05
2018-10-09T00:11:43.679Z,10.23
2018-10-09T00:14:11.847Z,9.05
2018-10-09T00:16:39.994Z,9.17
2018-10-09T00:19:08.137Z,9.98
2018-10-09T00:21:36.275Z,9.35
2018-10-09T00:24:04.410Z,9.25
2018-10-09T00:26:32.619Z,8.83
2018-10-09T00:29:00.799Z,9.33
2018-10-09T00:31:28.908Z,9.98
2018-10-09T00:33:57.069Z,9.18
2018-10-09T00:36:25.196Z,9.60
2018-10-09T00:38:53.355Z,9.75
2018-10-09T00:41:21.553Z,10.32
2018-10-09T00:43:49.704Z,9.25
2018-10-09T00:46:17.959Z,9.80
2018-10-09T00:48:46.107Z,10.13
2018-10-09T00:51:14.237Z,9.48
2018-10-09T00:53:42.411Z,9.95
2018-10-09T00:56:10.727Z,10.18
2018-10-09T00:58:38.921Z,10.70
2018-10-09T01:01:08.085Z,10.03
2018-10-09T01:03:36.206Z,9.97
2018-10-09T01:06:04.412Z,9.90
2018-10-09T01:08:32.675Z,10.13
2018-10-09T01:11:01.107Z,10.03
2018-10-09T01:13:29.237Z,10.20
2018-10-09T01:15:57.511Z,10.63
2018-10-09T01:18:25.738Z,9.93
2018-10-09T01:20:53.889Z,10.35
2018-10-09T01:23:23.881Z,10.20
2018-10-09T01:25:52.044Z,9.80
2018-10-09T01:28:20.252Z,10.78
2018-10-09T01:30:48.491Z,10.78
2018-10-09T01:33:16.679Z,11.20
2018-10-09T01:35:44.837Z,10.75
2018-10-09T01:38:13.010Z,10.50
2018-10-09T01:40:41.176Z,11.13
2018-10-09T01:43:09.351Z,10.80
2018-10-09T01:45:37.536Z,10.78
2018-10-09T01:48:05.911Z,11.03
2018-10-09T01:50:34.042Z,10.97
2018-10-09T01:53:02.192Z,10.80
2018-10-09T01:55:30.366Z,11.70
2018-10-09T01:57:58.527Z,10.80
2018-10-09T02:00:26.671Z,11.30
2018-10-09T02:02:54.840Z,10.90
2018-10-09T02:05:22.997Z,11.20
2018-10-09T02:07:51.453Z,11.65
2018-10-09T02:10:19.566Z,11.48
2018-10-09T02:12:47.734Z,11.83
2018-10-09T02:15:15.872Z,11.80
2018-10-09T02:17:44.226Z,11.65
2018-10-09T02:20:12.376Z,11.45
2018-10-09T02:22:40.502Z,11.73
2018-10-09T02:25:08.656Z,12.43
2018-10-09T02:27:36.793Z,13.83
2018-10-09T02:30:06.623Z,13.45
2018-10-09T02:32:34.795Z,11.75
2018-10-09T02:35:02.909Z,12.07
2018-10-09T02:37:31.122Z,12.75
2018-10-09T02:39:59.291Z,11.85
2018-10-09T02:42:27.459Z,12.20
2018-10-09T02:44:55.644Z,12.53
2018-10-09T02:47:23.771Z,11.75
2018-10-09T02:49:51.917Z,12.45
2018-10-09T02:52:20.105Z,12.78
2018-10-09T02:54:48.255Z,12.73
2018-10-09T02:57:16.459Z,12.82
2018-10-09T02:59:44.580Z,12.73
2018-10-09T03:02:12.746Z,12.35
2018-10-09T03:04:41.124Z,12.43
2018-10-09T03:07:09.294Z,12.90
2018-10-09T03:09:37.447Z,12.50
2018-10-09T03:12:05.627Z,12.47
2018-10-09T03:14:33.767Z,13.10
2018-10-09T03:17:01.870Z,13.40
2018-10-09T03:19:30.039Z,13.13
2018-10-09T03:21:58.216Z,13.55
2018-10-09T03:24:26.361Z,14.23
2018-10-09T03:26:54.521Z,14.40
2018-10-09T03:29:23.122Z,14.65
2018-10-09T03:31:51.362Z,13.93
2018-10-09T03:34:19.487Z,14.05
2018-10-09T03:36:47.625Z,13.85
2018-10-09T03:39:15.734Z,13.48
2018-10-09T03:41:43.883Z,15.03
2018-10-09T03:44:12.039Z,15.23
2018-10-09T03:46:40.252Z,13.90
2018-10-09T03:49:08.419Z,13.88
2018-10-09T03:51:36.546Z,13.95
2018-10-09T03:54:04.751Z,13.85
2018-10-09T03:56:32.913Z,15.20
2018-10-09T03:59:01.010Z,14.78
2018-10-09T04:01:29.177Z,14.18
2018-10-09T04:03:57.691Z,13.83
2018-10-09T04:06:25.833Z,15.00
2018-10-09T04:08:54.015Z,14.73
2018-10-09T04:11:23.007Z,14.80
2018-10-09T04:13:51.176Z,14.38
2018-10-09T04:16:19.352Z,15.53
2018-10-09T04:18:47.499Z,14.65
2018-10-09T04:21:15.698Z,15.18
2018-10-09T04:23:43.844Z,15.30
2018-10-09T04:26:12.020Z,16.07
2018-10-09T04:28:40.176Z,15.75
2018-10-09T04:31:08.770Z,15.93
2018-10-09T04:33:36.975Z,17.02
2018-10-09T04:36:05.226Z,15.53
2018-10-09T04:38:33.768Z,17.30
2018-10-09T04:41:02.000Z,16.87
2018-10-09T04:43:31.140Z,16.20
2018-10-09T04:45:59.273Z,16.45
2018-10-09T04:48:27.446Z,16.23
2018-10-09T04:53:23.388Z,17.85
2018-10-09T04:55:51.560Z,16.80
2018-10-09T04:58:19.716Z,17.37
2018-10-09T05:00:47.988Z,17.87
2018-10-09T05:03:16.205Z,16.62
2018-10-09T05:05:44.435Z,16.85
2018-10-09T05:08:12.590Z,17.57
2018-10-09T05:10:40.740Z,16.62
2018-10-09T05:13:08.980Z,16.48
2018-10-09T05:15:37.155Z,17.85
2018-10-09T05:18:05.346Z,16.55
2018-10-09T05:20:34.542Z,16.15
2018-10-09T05:23:02.731Z,17.77
2018-10-09T05:25:30.872Z,16.47
2018-10-09T05:27:59.071Z,18.17
2018-10-09T05:30:27.310Z,17.27
2018-10-09T05:32:55.475Z,16.90
2018-10-09T05:35:23.653Z,17.17
2018-10-09T05:37:52.232Z,17.45
2018-10-09T05:40:20.414Z,18.23
2018-10-09T05:42:48.680Z,17.85
2018-10-09T05:45:16.987Z,17.60
2018-10-09T05:47:45.176Z,18.15
2018-10-09T05:50:13.359Z,17.62
2018-10-09T05:52:41.565Z,16.70
2018-10-09T05:55:09.741Z,18.70
2018-10-09T05:57:38.019Z,18.07
2018-10-09T06:00:07.355Z,18.92
2018-10-09T06:02:35.502Z,19.27
2018-10-09T06:05:03.687Z,19.70
2018-10-09T06:07:31.843Z,19.40
2018-10-09T06:09:59.980Z,18.42
2018-10-09T06:12:28.174Z,18.34
2018-10-09T06:14:56.318Z,17.17
2018-10-09T06:17:24.433Z,19.52
2018-10-09T06:19:52.591Z,19.00
2018-10-09T06:22:20.763Z,16.77
2018-10-09T06:24:48.943Z,17.27
2018-10-09T06:27:17.136Z,17.90
2018-10-09T06:29:45.270Z,17.82
2018-10-09T06:32:13.407Z,18.45
2018-10-09T06:34:41.545Z,18.12
2018-10-09T06:37:10.309Z,16.45
2018-10-09T06:39:38.466Z,17.75
2018-10-09T06:42:06.615Z,21.77
2018-10-09T06:44:34.748Z,18.97
2018-10-09T06:47:02.894Z,17.67
2018-10-09T06:49:31.027Z,17.93
2018-10-09T06:51:59.261Z,17.15
2018-10-09T06:54:27.484Z,20.15
2018-10-09T06:56:55.572Z,17.85
2018-10-09T06:59:23.737Z,18.10
2018-10-09T07:01:51.870Z,17.70
2018-10-09T07:04:20.028Z,18.85
2018-10-09T07:06:48.234Z,18.40
2018-10-09T07:09:16.413Z,19.80
2018-10-09T07:11:44.590Z,21.87
2018-10-09T07:14:12.721Z,18.25
2018-10-09T07:16:40.901Z,21.68
2018-10-09T07:19:09.048Z,20.32
2018-10-09T07:21:37.196Z,20.92
2018-10-09T07:24:05.368Z,20.82
2018-10-09T07:26:33.542Z,22.00
2018-10-09T07:29:01.744Z,21.25
2018-10-09T07:31:29.912Z,21.33
2018-10-09T07:33:58.174Z,19.62
2018-10-09T07:36:26.371Z,24.10
2018-10-09T07:38:54.504Z,20.43
2018-10-09T07:41:23.320Z,20.52
2018-10-09T07:43:51.526Z,22.80
2018-10-09T07:46:19.656Z,21.75
2018-10-09T07:48:47.816Z,19.12
2018-10-09T07:51:16.034Z,22.00
2018-10-09T07:53:44.196Z,20.70
2018-10-09T07:56:12.359Z,21.33
2018-10-09T07:58:40.568Z,20.17
2018-10-09T08:01:08.627Z,24.87
2018-10-09T08:03:36.761Z,24.37
2018-10-09T08:06:04.899Z,19.75
2018-10-09T08:08:33.161Z,25.55
2018-10-09T08:11:01.644Z,19.60
2018-10-09T08:13:29.736Z,20.88
2018-10-09T08:15:57.903Z,20.23
2018-10-09T08:18:26.036Z,19.50
2018-10-09T08:20:54.205Z,18.67
2018-10-09T08:23:23.268Z,19.10
2018-10-09T08:25:51.461Z,19.77
2018-10-09T08:28:19.609Z,17.75
2018-10-09T08:30:47.719Z,21.23
2018-10-09T08:33:15.864Z,18.90
2018-10-09T08:35:44.041Z,17.00
2018-10-09T08:38:12.167Z,18.23
2018-10-09T08:40:40.328Z,21.83
2018-10-09T08:43:08.469Z,17.32
2018-10-09T08:45:36.608Z,18.27
2018-10-09T08:48:04.747Z,16.52
2018-10-09T08:50:32.879Z,15.53
2018-10-09T08:53:01.023Z,15.32
2018-10-09T08:55:29.236Z,17.00
2018-10-09T08:57:57.440Z,16.37
2018-10-09T09:00:25.617Z,14.03
2018-10-09T09:02:53.991Z,13.62
2018-10-09T09:05:22.109Z,14.13
2018-10-09T09:07:50.280Z,14.00
2018-10-09T09:10:18.487Z,16.93
2018-10-09T09:12:46.677Z,13.70
2018-10-09T09:15:14.834Z,14.10
2018-10-09T09:17:42.976Z,14.45
2018-10-09T09:20:11.852Z,13.75
2018-10-09T09:22:39.967Z,14.07
2018-10-09T09:25:08.088Z,15.50
2018-10-09T09:27:36.260Z,16.60
2018-10-09T09:30:04.892Z,17.80
2018-10-09T09:32:33.048Z,16.37
2018-10-09T09:35:01.176Z,17.27
2018-10-09T09:37:29.304Z,17.70
2018-10-09T09:39:57.431Z,17.95
2018-10-09T09:42:25.654Z,18.95
2018-10-09T09:44:53.835Z,18.07
2018-10-09T09:47:21.985Z,17.52
2018-10-09T09:49:50.172Z,17.40
2018-10-09T09:52:18.315Z,18.42
2018-10-09T09:54:46.456Z,18.50
2018-10-09T09:57:14.596Z,17.52
2018-10-09T09:59:42.837Z,18.65
2018-10-09T10:02:10.991Z,17.65
2018-10-09T10:04:39.111Z,18.10
2018-10-09T10:07:07.293Z,19.12
2018-10-09T10:09:35.460Z,19.23
2018-10-09T10:12:03.632Z,19.75
2018-10-09T10:14:31.925Z,19.02
2018-10-09T10:17:00.068Z,20.65
2018-10-09T10:19:28.236Z,18.40
2018-10-09T10:21:56.428Z,17.20
2018-10-09T10:24:24.577Z,20.88
2018-10-09T10:26:52.728Z,19.10
2018-10-09T10:29:20.938Z,20.20
2018-10-09T10:31:49.024Z,19.50
2018-10-09T10:34:17.209Z,21.00
2018-10-09T10:36:45.395Z,20.82
2018-10-09T10:39:13.620Z,18.35
2018-10-09T10:41:42.060Z,18.40
2018-10-09T10:44:10.259Z,19.17
2018-10-09T10:46:39.199Z,18.60
2018-10-09T10:49:09.140Z,18.17
2018-10-09T10:51:37.610Z,19.32
2018-10-09T10:54:06.582Z,18.98
2018-10-09T10:56:35.474Z,18.95
2018-10-09T10:59:03.734Z,19.15
2018-10-09T11:01:31.970Z,18.20
2018-10-09T11:04:00.126Z,18.15
2018-10-09T11:06:28.265Z,19.62
2018-10-09T11:08:56.383Z,17.87
2018-10-09T11:11:24.516Z,17.95
2018-10-09T11:13:52.662Z,19.05
2018-10-09T11:16:20.822Z,16.37
2018-10-09T11:18:49.112Z,17.37
2018-10-09T11:21:17.334Z,17.40
2018-10-09T11:23:45.373Z,16.75
2018-10-09T11:26:13.494Z,17.25
2018-10-09T11:28:41.616Z,16.17
2018-10-09T11:31:09.723Z,17.40
2018-10-09T11:33:37.944Z,16.48
2018-10-09T11:36:06.156Z,15.60
2018-10-09T11:38:34.297Z,15.20
2018-10-09T11:41:02.550Z,15.30
2018-10-09T11:43:30.728Z,13.83
2018-10-09T11:45:58.833Z,12.80
2018-10-09T11:48:26.960Z,13.43
2018-10-09T11:50:55.119Z,12.30
2018-10-09T11:53:23.584Z,12.35
2018-10-09T11:55:51.726Z,12.35
2018-10-09T11:58:19.908Z,12.20
2018-10-09T12:00:49.318Z,12.37
2018-10-09T12:03:17.411Z,11.50
2018-10-09T12:05:45.674Z,10.10
2018-10-09T12:08:13.901Z,10.43
2018-10-09T12:10:42.037Z,10.50
2018-10-09T12:13:10.323Z,9.40
2018-10-09T12:15:38.537Z,10.20
2018-10-09T12:18:06.644Z,9.53
2018-10-09T12:20:34.855Z,8.48
2018-10-09T12:23:02.988Z,9.75
2018-10-09T12:25:31.222Z,12.88
2018-10-09T12:27:59.409Z,10.53
2018-10-09T12:30:27.527Z,10.32
2018-10-09T12:32:55.708Z,9.38
2018-10-09T12:35:23.835Z,9.08
2018-10-09T12:37:51.972Z,9.43
2018-10-09T12:40:20.108Z,9.33
2018-10-09T12:42:48.312Z,9.58
2018-10-09T12:45:16.449Z,8.40
2018-10-09T12:47:44.620Z,7.53
2018-10-09T12:50:12.772Z,8.20
2018-10-09T12:52:40.965Z,7.37
2018-10-09T12:55:09.370Z,8.93
2018-10-09T12:57:37.653Z,9.20
2018-10-09T13:00:05.787Z,8.88
2018-10-09T13:02:34.044Z,8.60
2018-10-09T13:05:02.194Z,7.70
2018-10-09T13:07:30.340Z,8.83
2018-10-09T13:09:58.478Z,8.55
2018-10-09T13:12:26.619Z,8.10
2018-10-09T13:14:54.778Z,8.27
2018-10-09T13:17:23.725Z,8.43
2018-10-09T13:19:51.854Z,8.10
2018-10-09T13:22:20.372Z,8.10
2018-10-09T13:24:48.175Z,7.00
2018-10-09T13:27:16.422Z,8.08
2018-10-09T13:29:44.484Z,9.18
2018-10-09T13:32:12.596Z,9.25
2018-10-09T13:34:40.847Z,7.28
2018-10-09T13:37:08.893Z,7.60
2018-10-09T13:39:37.326Z,8.43
2018-10-09T13:42:05.512Z,10.10
2018-10-09T13:44:33.713Z,9.18
2018-10-09T13:47:01.900Z,7.92
2018-10-09T13:49:30.063Z,7.53
2018-10-09T13:51:58.190Z,8.70
2018-10-09T13:54:26.330Z,8.55
2018-10-09T13:56:54.664Z,9.28
2018-10-09T13:59:23.730Z,8.48
2018-10-09T14:01:51.886Z,8.55
2018-10-09T14:04:20.029Z,8.00
2018-10-09T14:06:48.143Z,8.08
2018-10-09T14:09:16.303Z,8.88
2018-10-09T14:11:44.487Z,9.43
2018-10-09T14:14:12.648Z,8.23
2018-10-09T14:16:40.844Z,8.20
2018-10-09T14:19:09.000Z,7.87
2018-10-09T14:21:37.130Z,7.97
2018-10-09T14:24:05.344Z,7.62
2018-10-09T14:26:33.526Z,7.45
2018-10-09T14:29:01.688Z,7.72
2018-10-09T14:31:29.853Z,8.68
2018-10-09T14:33:57.992Z,8.73
2018-10-09T14:36:26.226Z,9.75
2018-10-09T14:38:54.489Z,10.10
2018-10-09T14:41:22.595Z,9.98
2018-10-09T14:43:50.709Z,8.93
2018-10-09T14:46:18.813Z,8.75
2018-10-09T14:48:47.031Z,8.50
2018-10-09T14:51:15.228Z,9.80
2018-10-09T14:53:43.412Z,9.18
2018-10-09T14:56:11.601Z,9.90
2018-10-09T14:58:39.763Z,7.53
2018-10-09T15:01:08.239Z,9.83
2018-10-09T15:03:36.373Z,8.60
2018-10-09T15:06:04.584Z,9.05
2018-10-09T15:08:32.727Z,8.77
2018-10-09T15:11:00.838Z,8.75
2018-10-09T15:13:29.096Z,7.27
2018-10-09T15:15:57.259Z,7.78
2018-10-09T15:18:25.415Z,10.13
2018-10-09T15:20:53.558Z,8.50
2018-10-09T15:23:21.704Z,8.95
2018-10-09T15:25:49.937Z,9.23
2018-10-09T15:28:18.122Z,8.50
2018-10-09T15:30:46.272Z,8.63
2018-10-09T15:33:14.467Z,8.60
2018-10-09T15:35:42.607Z,8.60
2018-10-09T15:38:10.736Z,7.67
2018-10-09T15:40:38.883Z,8.60
2018-10-09T15:43:06.996Z,7.63
2018-10-09T15:45:35.221Z,7.90
2018-10-09T15:48:03.411Z,7.62
2018-10-09T15:50:31.592Z,7.35
2018-10-09T15:52:59.767Z,7.65
2018-10-09T15:55:27.893Z,7.00
2018-10-09T15:57:56.009Z,10.00
2018-10-09T16:00:24.247Z,8.15
2018-10-09T16:02:52.399Z,7.35
2018-10-09T16:05:20.776Z,8.60
2018-10-09T16:07:48.903Z,8.25
2018-10-09T16:10:17.119Z,9.23
2018-10-09T16:12:45.304Z,8.58
2018-10-09T16:15:13.555Z,8.18
2018-10-09T16:17:41.777Z,8.10
2018-10-09T16:20:09.917Z,8.50
2018-10-09T16:22:38.092Z,7.90
2018-10-09T16:25:06.374Z,8.20
2018-10-09T16:27:34.596Z,9.00
2018-10-09T16:30:02.825Z,8.03
2018-10-09T16:32:30.980Z,8.00
2018-10-09T16:34:59.254Z,8.28
2018-10-09T16:37:27.488Z,8.65
2018-10-09T16:39:55.703Z,7.25
2018-10-09T16:42:23.837Z,7.90
2018-10-09T16:44:52.050Z,6.55
2018-10-09T16:47:20.311Z,8.40
2018-10-09T16:49:48.356Z,8.53
2018-10-09T16:52:16.807Z,8.63
2018-10-09T16:54:45.120Z,8.95
2018-10-09T16:57:13.339Z,8.20
2018-10-09T16:59:42.532Z,8.50
2018-10-09T17:02:10.804Z,7.87
2018-10-09T17:04:39.041Z,8.58
2018-10-09T17:07:07.188Z,6.90
2018-10-09T17:09:35.579Z,7.33
2018-10-09T17:12:03.702Z,8.10
2018-10-09T17:14:31.807Z,6.80
2018-10-09T17:16:59.961Z,7.42
2018-10-09T17:19:28.175Z,8.78
2018-10-09T17:21:56.359Z,7.50
2018-10-09T17:24:25.176Z,7.24
2018-10-09T17:26:53.472Z,9.18
2018-10-09T17:29:21.600Z,9.38
2018-10-09T17:31:49.701Z,9.78
2018-10-09T17:34:17.944Z,9.28
2018-10-09T17:36:46.075Z,9.53
2018-10-09T17:39:14.538Z,8.50
2018-10-09T17:41:42.664Z,8.85
2018-10-09T17:44:10.861Z,10.38
2018-10-09T17:46:39.352Z,10.60
2018-10-09T17:49:07.528Z,9.95
2018-10-09T17:51:36.025Z,10.85
2018-10-09T17:54:04.212Z,10.43
2018-10-09T17:56:32.485Z,10.32
2018-10-09T17:59:00.643Z,9.93
2018-10-09T18:01:28.755Z,9.90
2018-10-09T18:03:56.974Z,9.15
2018-10-09T18:06:25.229Z,10.45
2018-10-09T18:08:53.490Z,9.75
2018-10-09T18:11:21.647Z,8.65
2018-10-09T18:13:49.796Z,10.30
2018-10-09T18:16:18.009Z,8.43
2018-10-09T18:18:46.340Z,9.10
2018-10-09T18:21:14.544Z,11.12
2018-10-09T18:23:42.897Z,11.38
2018-10-09T18:26:11.110Z,9.20
2018-10-09T18:28:39.264Z,11.20
2018-10-09T18:31:07.402Z,9.85
2018-10-09T18:33:35.672Z,8.57
2018-10-09T18:36:03.865Z,9.30
2018-10-09T18:38:31.998Z,9.10
2018-10-09T18:41:00.189Z,8.10
2018-10-09T18:43:28.440Z,8.30
2018-10-09T18:45:56.617Z,8.20
2018-10-09T18:48:24.884Z,8.53
2018-10-09T18:50:53.036Z,9.23
2018-10-09T18:53:21.177Z,8.80
2018-10-09T18:55:49.364Z,9.23
2018-10-09T18:58:17.665Z,9.03
2018-10-09T19:00:45.908Z,9.75
2018-10-09T19:03:14.049Z,12.00
2018-10-09T19:05:42.184Z,12.70
2018-10-09T19:08:16.712Z,14.15
2018-10-09T19:10:44.982Z,12.37
2018-10-09T19:13:13.074Z,13.43
2018-10-09T19:15:41.465Z,13.15
2018-10-09T19:18:09.893Z,12.75
2018-10-09T19:20:38.124Z,12.23
2018-10-09T19:23:06.624Z,12.35
2018-10-09T19:25:34.830Z,12.43
2018-10-09T19:28:02.955Z,11.50
2018-10-09T19:30:31.102Z,13.50
2018-10-09T19:32:59.260Z,12.25
2018-10-09T19:35:27.374Z,12.15
2018-10-09T19:37:55.576Z,15.90
2018-10-09T19:40:23.976Z,14.20
2018-10-09T19:42:52.156Z,13.38
2018-10-09T19:45:20.408Z,11.78
2018-10-09T19:47:48.556Z,12.33
2018-10-09T19:50:16.692Z,11.85
2018-10-09T19:52:44.945Z,10.75
2018-10-09T19:55:13.124Z,12.35
2018-10-09T19:57:41.312Z,12.10
2018-10-09T20:00:09.535Z,12.68
2018-10-09T20:02:37.867Z,12.15
2018-10-09T20:05:06.029Z,13.43
2018-10-09T20:07:34.264Z,14.90
2018-10-09T20:10:02.580Z,12.70
2018-10-09T20:12:30.757Z,14.18
2018-10-09T20:14:58.978Z,14.58
2018-10-09T20:17:27.206Z,13.80
2018-10-09T20:19:55.488Z,13.28
2018-10-09T20:22:24.156Z,12.82
2018-10-09T20:24:52.321Z,14.03
2018-10-09T20:27:20.572Z,15.23
2018-10-09T20:29:48.717Z,14.18
2018-10-09T20:32:16.977Z,14.63
2018-10-09T20:34:45.093Z,15.23
2018-10-09T20:37:13.235Z,14.38
2018-10-09T20:39:41.384Z,14.73
2018-10-09T20:42:09.812Z,12.98
2018-10-09T20:44:38.234Z,14.95
2018-10-09T20:47:06.550Z,14.90
2018-10-09T20:49:34.744Z,13.60
2018-10-09T20:52:02.933Z,14.47
2018-10-09T20:54:31.279Z,15.90
2018-10-09T20:56:59.831Z,14.53
2018-10-09T20:59:28.026Z,16.27
2018-10-09T21:01:56.228Z,14.87
2018-10-09T21:04:24.379Z,16.85
2018-10-09T21:06:52.636Z,15.28
2018-10-09T21:09:20.759Z,14.38
2018-10-09T21:11:48.987Z,17.87
2018-10-09T21:14:17.157Z,16.07
2018-10-09T21:16:45.300Z,15.53
2018-10-09T21:19:13.728Z,15.50
2018-10-09T21:21:42.178Z,15.97
2018-10-09T21:24:10.410Z,16.27
2018-10-09T21:26:38.667Z,17.07
2018-10-09T21:29:06.857Z,16.85
2018-10-09T21:31:35.034Z,17.10
2018-10-09T21:34:03.327Z,18.42
2018-10-09T21:36:31.665Z,17.35
2018-10-09T21:38:59.929Z,16.75
2018-10-09T21:41:28.256Z,15.83
2018-10-09T21:43:56.576Z,16.75
2018-10-09T21:46:24.684Z,16.15
2018-10-09T21:48:52.914Z,16.25
2018-10-09T21:51:21.064Z,16.62
2018-10-09T21:53:49.279Z,17.62
2018-10-09T21:56:17.465Z,16.32
2018-10-09T21:58:45.672Z,17.20
2018-10-09T22:01:13.900Z,16.80
2018-10-09T22:03:42.334Z,16.53
2018-10-09T22:06:11.056Z,16.82
2018-10-09T22:08:39.748Z,18.07
2018-10-09T22:11:08.144Z,19.25
2018-10-09T22:13:36.998Z,16.85
2018-10-09T22:16:05.212Z,17.90
2018-10-09T22:18:33.408Z,18.95
2018-10-09T22:21:01.548Z,18.52
2018-10-09T22:23:29.762Z,19.05
2018-10-09T22:25:57.968Z,17.73
2018-10-09T22:28:26.084Z,18.77
2018-10-09T22:30:54.195Z,19.02
2018-10-09T22:33:22.344Z,18.50
2018-10-09T22:35:50.494Z,18.73
2018-10-09T22:38:18.712Z,19.37
2018-10-09T22:40:46.860Z,19.05
2018-10-09T22:43:15.135Z,19.57
2018-10-09T22:45:43.271Z,19.60
2018-10-09T22:48:11.463Z,20.08
2018-10-09T22:50:39.597Z,18.47
2018-10-09T22:53:07.839Z,18.48
2018-10-09T22:55:35.976Z,20.12
2018-10-09T22:58:04.101Z,20.32
2018-10-09T23:00:32.276Z,18.98
2018-10-09T23:03:00.553Z,18.85
2018-10-09T23:05:28.675Z,20.08
2018-10-09T23:07:56.808Z,18.30
2018-10-09T23:10:24.916Z,18.35
2018-10-09T23:12:53.069Z,18.57
2018-10-09T23:15:21.201Z,18.23
2018-10-09T23:17:49.330Z,19.12
2018-10-09T23:20:17.460Z,17.60
2018-10-09T23:22:45.574Z,17.32
2018-10-09T23:25:13.753Z,18.37
2018-10-09T23:27:41.883Z,19.37
2018-10-09T23:30:10.531Z,18.42
2018-10-09T23:32:38.659Z,18.52
2018-10-09T23:35:06.983Z,17.90
2018-10-09T23:37:35.146Z,16.65
2018-10-09T23:40:03.293Z,18.55
2018-10-09T23:42:31.489Z,17.40
2018-10-09T23:44:59.631Z,17.52
2018-10-09T23:47:27.745Z,16.67
2018-10-09T23:49:55.910Z,17.27
2018-10-09T23:52:24.338Z,17.27
2018-10-09T23:54:52.527Z,17.90
2018-10-09T23:57:20.740Z,18.12
2018-10-09T23:59:48.859Z,17.77
